createdAt,value
2018-02-11T00:01:45.377Z,71.76
2018-02-11T00:04:13.504Z,72.66
2018-02-11T00:06:41.629Z,73.65
2018-02-11T00:09:09.741Z,73.95
2018-02-11T00:11:37.845Z,74.40
2018-02-11T00:14:06.004Z,74.58
2018-02-11T00:16:34.575Z,75.92
2018-02-11T00:19:02.675Z,77.74
2018-02-11T00:21:30.778Z,79.87
2018-02-11T00:23:58.896Z,81.28
2018-02-11T00:26:26.997Z,82.26
2018-02-11T00:28:55.113Z,83.73
2018-02-11T00:31:23.228Z,85.80
2018-02-11T00:33:51.327Z,87.27
2018-02-11T00:36:19.431Z,88.66
2018-02-11T00:38:47.551Z,90.09
2018-02-11T00:41:15.679Z,90.70
2018-02-11T00:43:43.797Z,91.30
2018-02-11T00:46:11.917Z,91.66
2018-02-11T00:48:40.023Z,92.16
2018-02-11T00:51:08.152Z,92.16
2018-02-11T00:53:36.243Z,92.69
2018-02-11T00:56:04.377Z,92.46
2018-02-11T00:58:32.528Z,92.51
2018-02-11T01:01:00.632Z,93.26
2018-02-11T01:03:28.731Z,93.55
2018-02-11T01:05:56.849Z,93.97
2018-02-11T01:08:24.954Z,94.52
2018-02-11T01:10:53.078Z,94.69
2018-02-11T01:13:21.193Z,94.38
2018-02-11T01:15:49.297Z,94.26
2018-02-11T01:18:17.430Z,94.71
2018-02-11T01:20:45.543Z,95.00
2018-02-11T01:23:13.717Z,95.28
2018-02-11T01:25:41.822Z,95.46
2018-02-11T01:28:09.946Z,95.56
2018-02-11T01:30:38.047Z,95.36
2018-02-11T01:33:06.176Z,95.58
2018-02-11T01:35:34.279Z,95.79
2018-02-11T01:38:02.406Z,95.87
2018-02-11T01:40:30.498Z,95.97
2018-02-11T01:42:58.630Z,96.21
2018-02-11T01:45:26.767Z,96.09
2018-02-11T01:47:54.850Z,96.30
2018-02-11T01:50:22.976Z,96.29
2018-02-11T01:52:51.102Z,96.29
2018-02-11T01:55:19.199Z,96.24
2018-02-11T01:57:47.344Z,96.38
2018-02-11T02:00:15.460Z,96.33
2018-02-11T02:02:43.578Z,96.12
2018-02-11T02:05:11.700Z,96.23
2018-02-11T02:07:39.801Z,96.17
2018-02-11T02:10:07.918Z,96.15
2018-02-11T02:12:36.019Z,96.05
2018-02-11T02:15:04.136Z,95.83
2018-02-11T02:17:32.271Z,95.67
2018-02-11T02:20:00.371Z,95.94
2018-02-11T02:22:28.482Z,95.82
2018-02-11T02:24:56.609Z,95.96
2018-02-11T02:27:24.730Z,96.00
2018-02-11T02:29:52.832Z,96.02
2018-02-11T02:32:20.936Z,96.00
2018-02-11T02:34:49.075Z,95.78
2018-02-11T02:37:20.495Z,95.46
2018-02-11T02:39:48.621Z,95.66
2018-02-11T02:42:16.714Z,95.48
2018-02-11T02:44:44.831Z,95.47
2018-02-11T02:47:12.933Z,95.61
2018-02-11T02:49:41.039Z,95.28
2018-02-11T02:52:09.135Z,95.39
2018-02-11T02:54:37.240Z,95.22
2018-02-11T02:57:05.361Z,95.24
2018-02-11T02:59:33.489Z,95.01
2018-02-11T03:02:01.647Z,94.98
2018-02-11T03:04:29.755Z,94.65
2018-02-11T03:06:57.864Z,94.75
2018-02-11T03:09:25.975Z,94.92
2018-02-11T03:11:54.967Z,94.67
2018-02-11T03:14:23.088Z,94.32
2018-02-11T03:16:51.204Z,94.71
2018-02-11T03:19:19.303Z,94.52
2018-02-11T03:21:47.398Z,94.30
2018-02-11T03:24:15.495Z,94.64
2018-02-11T03:26:43.605Z,94.53
2018-02-11T03:29:11.730Z,94.42
2018-02-11T03:31:39.825Z,94.73
2018-02-11T03:34:07.944Z,94.25
2018-02-11T03:36:36.050Z,94.54
2018-02-11T03:39:04.164Z,94.58
2018-02-11T03:41:32.279Z,95.12
2018-02-11T03:44:00.396Z,95.35
2018-02-11T03:46:28.496Z,95.35
2018-02-11T03:48:56.586Z,95.47
2018-02-11T03:51:24.728Z,95.41
2018-02-11T03:53:52.825Z,95.62
2018-02-11T03:56:20.943Z,95.46
2018-02-11T03:58:49.063Z,95.22
2018-02-11T04:01:17.164Z,95.40
2018-02-11T04:03:45.271Z,95.57
2018-02-11T04:06:13.385Z,95.32
2018-02-11T04:08:41.486Z,95.62
2018-02-11T04:11:09.592Z,95.62
2018-02-11T04:13:37.744Z,95.90
2018-02-11T04:16:05.909Z,96.10
2018-02-11T04:18:34.010Z,96.34
2018-02-11T04:21:02.114Z,96.28
2018-02-11T04:23:30.223Z,96.20
2018-02-11T04:25:58.338Z,96.37
2018-02-11T04:28:26.441Z,96.24
2018-02-11T04:30:54.538Z,96.27
2018-02-11T04:33:22.642Z,96.45
2018-02-11T04:35:50.757Z,96.41
2018-02-11T04:38:18.843Z,96.64
2018-02-11T04:40:46.953Z,96.62
2018-02-11T04:43:15.046Z,96.86
2018-02-11T04:45:43.164Z,97.10
2018-02-11T04:48:11.271Z,97.21
2018-02-11T04:50:39.366Z,97.14
2018-02-11T04:53:07.487Z,97.21
2018-02-11T04:55:35.585Z,97.40
2018-02-11T04:58:03.693Z,97.38
2018-02-11T05:00:31.808Z,97.36
2018-02-11T05:02:59.988Z,97.47
2018-02-11T05:05:28.078Z,97.44
2018-02-11T05:07:56.171Z,97.58
2018-02-11T05:10:24.279Z,97.78
2018-02-11T05:12:52.381Z,97.89
2018-02-11T05:15:20.486Z,97.52
2018-02-11T05:17:48.578Z,97.90
2018-02-11T05:20:16.697Z,97.71
2018-02-11T05:22:44.847Z,97.71
2018-02-11T05:25:12.961Z,97.61
2018-02-11T05:27:41.063Z,97.64
2018-02-11T05:30:09.181Z,97.40
2018-02-11T05:32:37.271Z,97.48
2018-02-11T05:35:05.382Z,97.31
2018-02-11T05:37:33.498Z,97.26
2018-02-11T05:40:01.601Z,97.34
2018-02-11T05:42:29.751Z,97.39
2018-02-11T05:44:57.803Z,97.48
2018-02-11T05:47:25.912Z,97.76
2018-02-11T05:49:54.242Z,98.18
2018-02-11T05:52:22.361Z,98.30
2018-02-11T05:54:50.467Z,98.15
2018-02-11T05:57:18.597Z,98.05
2018-02-11T05:59:46.716Z,98.07
2018-02-11T06:02:14.818Z,98.32
2018-02-11T06:04:42.919Z,98.22
2018-02-11T06:07:11.020Z,98.19
2018-02-11T06:09:39.122Z,98.23
2018-02-11T06:12:07.210Z,98.36
2018-02-11T06:14:35.332Z,98.57
2018-02-11T06:17:03.433Z,98.47
2018-02-11T06:19:31.519Z,98.45
2018-02-11T06:21:59.636Z,98.45
2018-02-11T06:24:27.726Z,98.40
2018-02-11T06:26:55.844Z,98.40
2018-02-11T06:29:23.958Z,98.26
2018-02-11T06:31:52.051Z,98.23
2018-02-11T06:34:20.148Z,98.06
2018-02-11T06:36:48.269Z,98.26
2018-02-11T06:39:16.360Z,98.35
2018-02-11T06:41:44.477Z,98.19
2018-02-11T06:44:12.568Z,98.05
2018-02-11T06:46:40.677Z,98.19
2018-02-11T06:49:08.885Z,98.31
2018-02-11T06:51:37.070Z,98.37
2018-02-11T06:54:05.182Z,98.35
2018-02-11T06:56:33.288Z,98.42
2018-02-11T06:59:01.387Z,98.33
2018-02-11T07:01:29.494Z,98.25
2018-02-11T07:03:57.600Z,98.07
2018-02-11T07:06:25.703Z,97.88
2018-02-11T07:08:53.821Z,97.73
2018-02-11T07:11:25.594Z,97.69
2018-02-11T07:13:53.700Z,97.57
2018-02-11T07:16:21.814Z,97.49
2018-02-11T07:18:49.906Z,97.40
2018-02-11T07:21:18.020Z,97.27
2018-02-11T07:23:46.128Z,97.15
2018-02-11T07:26:14.232Z,97.06
2018-02-11T07:28:42.330Z,97.22
2018-02-11T07:31:10.437Z,96.77
2018-02-11T07:33:38.527Z,96.50
2018-02-11T07:36:06.637Z,96.60
2018-02-11T07:38:34.718Z,96.57
2018-02-11T07:41:02.837Z,96.48
2018-02-11T07:43:31.126Z,96.58
2018-02-11T07:45:59.246Z,96.53
2018-02-11T07:48:27.346Z,96.36
2018-02-11T07:50:55.451Z,96.65
2018-02-11T07:53:23.539Z,96.61
2018-02-11T07:55:55.098Z,96.96
2018-02-11T07:58:23.241Z,97.14
2018-02-11T08:00:51.399Z,97.22
2018-02-11T08:03:19.485Z,97.31
2018-02-11T08:05:47.580Z,97.32
2018-02-11T08:08:15.679Z,97.51
2018-02-11T08:10:43.777Z,97.49
2018-02-11T08:13:12.036Z,97.47
2018-02-11T08:15:40.126Z,97.35
2018-02-11T08:18:08.235Z,97.27
2018-02-11T08:20:36.330Z,97.33
2018-02-11T08:23:04.451Z,97.35
2018-02-11T08:25:32.546Z,97.26
2018-02-11T08:28:00.646Z,97.04
2018-02-11T08:30:28.761Z,97.03
2018-02-11T08:32:56.862Z,96.70
2018-02-11T08:35:24.963Z,96.39
2018-02-11T08:37:53.071Z,96.35
2018-02-11T08:40:21.169Z,96.37
2018-02-11T08:42:49.292Z,96.15
2018-02-11T08:45:17.408Z,95.80
2018-02-11T08:47:45.491Z,95.55
2018-02-11T08:50:13.591Z,95.59
2018-02-11T08:52:41.692Z,95.54
2018-02-11T08:55:09.800Z,95.36
2018-02-11T08:57:41.620Z,94.93
2018-02-11T09:00:09.703Z,94.86
2018-02-11T09:02:37.808Z,94.58
2018-02-11T09:05:05.915Z,94.52
2018-02-11T09:07:34.007Z,94.32
2018-02-11T09:10:02.131Z,94.28
2018-02-11T09:12:30.236Z,94.36
2018-02-11T09:14:58.383Z,94.30
2018-02-11T09:17:26.481Z,93.77
2018-02-11T09:19:54.590Z,93.80
2018-02-11T09:22:22.961Z,93.16
2018-02-11T09:24:51.051Z,93.12
2018-02-11T09:27:19.187Z,92.83
2018-02-11T09:29:47.285Z,93.09
2018-02-11T09:32:15.393Z,93.06
2018-02-11T09:34:43.478Z,93.61
2018-02-11T09:37:11.614Z,93.34
2018-02-11T09:39:39.723Z,93.16
2018-02-11T09:42:07.885Z,93.03
2018-02-11T09:44:36.105Z,92.88
2018-02-11T09:47:04.210Z,91.99
2018-02-11T09:49:32.303Z,91.32
2018-02-11T09:52:00.398Z,91.04
2018-02-11T09:54:28.508Z,90.86
2018-02-11T09:56:56.611Z,90.10
2018-02-11T09:59:24.706Z,90.06
2018-02-11T10:01:52.811Z,89.71
2018-02-11T10:04:20.917Z,89.35
2018-02-11T10:06:49.027Z,89.70
2018-02-11T10:09:17.304Z,89.26
2018-02-11T10:11:45.426Z,89.20
2018-02-11T10:14:13.565Z,89.21
2018-02-11T10:16:41.658Z,89.42
2018-02-11T10:19:09.811Z,89.46
2018-02-11T10:21:37.971Z,89.07
2018-02-11T10:24:06.095Z,88.32
2018-02-11T10:26:36.102Z,88.26
2018-02-11T10:29:04.202Z,88.95
2018-02-11T10:31:32.332Z,89.33
2018-02-11T10:34:00.468Z,89.75
2018-02-11T10:36:28.514Z,89.55
2018-02-11T10:38:56.644Z,89.78
2018-02-11T10:41:24.746Z,89.61
2018-02-11T10:43:52.837Z,90.22
2018-02-11T10:46:21.060Z,89.45
2018-02-11T10:48:49.183Z,89.02
2018-02-11T10:51:17.293Z,88.66
2018-02-11T10:53:45.386Z,88.28
2018-02-11T10:56:13.496Z,87.69
2018-02-11T10:58:41.615Z,88.38
2018-02-11T11:01:09.719Z,88.35
2018-02-11T11:03:37.848Z,88.38
2018-02-11T11:06:05.960Z,87.58
2018-02-11T11:08:34.073Z,87.43
2018-02-11T11:11:02.239Z,88.28
2018-02-11T11:13:30.364Z,87.76
2018-02-11T11:15:58.468Z,87.55
2018-02-11T11:18:26.567Z,87.45
2018-02-11T11:20:54.917Z,87.36
2018-02-11T11:23:23.142Z,86.73
2018-02-11T11:25:51.230Z,86.14
2018-02-11T11:28:19.346Z,86.45
2018-02-11T11:30:47.444Z,86.05
2018-02-11T11:33:15.574Z,85.43
2018-02-11T11:35:43.668Z,86.24
2018-02-11T11:38:11.788Z,85.97
2018-02-11T11:40:39.908Z,85.40
2018-02-11T11:43:08.013Z,85.54
2018-02-11T11:45:36.237Z,85.13
2018-02-11T11:48:04.326Z,85.25
2018-02-11T11:50:32.450Z,87.00
2018-02-11T11:53:00.539Z,84.00
2018-02-11T11:55:28.666Z,83.61
2018-02-11T11:57:56.779Z,88.02
2018-02-11T12:00:24.884Z,88.65
2018-02-11T12:02:52.982Z,89.75
2018-02-11T12:05:21.091Z,88.63
2018-02-11T12:07:49.191Z,88.70
2018-02-11T12:10:17.301Z,88.83
2018-02-11T12:12:45.395Z,88.79
2018-02-11T12:15:13.514Z,88.09
2018-02-11T12:17:41.627Z,88.74
2018-02-11T12:20:09.718Z,88.93
2018-02-11T12:22:37.806Z,88.37
2018-02-11T12:25:07.837Z,88.04
2018-02-11T12:27:35.923Z,86.77
2018-02-11T12:30:07.079Z,87.46
2018-02-11T12:32:35.198Z,88.54
2018-02-11T12:35:03.315Z,87.45
2018-02-11T12:37:31.402Z,87.90
2018-02-11T12:39:59.520Z,89.02
2018-02-11T12:42:27.637Z,88.36
2018-02-11T12:44:55.758Z,89.80
2018-02-11T12:47:23.876Z,89.63
2018-02-11T12:49:51.982Z,90.28
2018-02-11T12:52:20.094Z,89.97
2018-02-11T12:54:48.189Z,91.08
2018-02-11T12:57:16.304Z,89.90
2018-02-11T12:59:44.388Z,89.63
2018-02-11T13:02:12.497Z,89.86
2018-02-11T13:04:40.641Z,89.70
2018-02-11T13:07:08.733Z,89.58
2018-02-11T13:09:36.865Z,89.08
2018-02-11T13:12:04.956Z,88.30
2018-02-11T13:14:33.133Z,89.09
2018-02-11T13:17:01.241Z,87.67
2018-02-11T13:19:29.354Z,88.11
2018-02-11T13:21:57.475Z,88.42
2018-02-11T13:24:25.559Z,88.10
2018-02-11T13:26:53.673Z,87.72
2018-02-11T13:29:21.759Z,83.89
2018-02-11T13:31:49.867Z,85.72
2018-02-11T13:34:17.962Z,86.14
2018-02-11T13:36:46.985Z,85.94
2018-02-11T13:39:15.073Z,85.42
2018-02-11T13:41:43.594Z,86.99
2018-02-11T13:44:11.693Z,85.98
2018-02-11T13:46:39.798Z,86.21
2018-02-11T13:49:07.897Z,85.62
2018-02-11T13:51:36.020Z,85.70
2018-02-11T13:54:04.125Z,85.27
2018-02-11T13:56:32.225Z,85.39
2018-02-11T13:59:00.323Z,85.23
2018-02-11T14:01:28.419Z,84.96
2018-02-11T14:03:56.541Z,84.73
2018-02-11T14:06:24.640Z,84.44
2018-02-11T14:08:52.761Z,84.65
2018-02-11T14:11:20.869Z,84.18
2018-02-11T14:13:48.954Z,83.74
2018-02-11T14:16:17.119Z,83.62
2018-02-11T14:18:45.209Z,83.26
2018-02-11T14:21:13.329Z,83.78
2018-02-11T14:23:41.442Z,83.33
2018-02-11T14:26:09.539Z,82.12
2018-02-11T14:28:37.657Z,80.23
2018-02-11T14:31:05.802Z,80.76
2018-02-11T14:33:33.894Z,78.87
2018-02-11T14:36:02.013Z,77.63
2018-02-11T14:38:30.119Z,76.91
2018-02-11T14:40:58.229Z,77.48
2018-02-11T14:43:26.316Z,77.54
2018-02-11T14:45:54.419Z,77.16
2018-02-11T14:48:22.536Z,77.66
2018-02-11T14:50:50.640Z,76.67
2018-02-11T14:53:18.763Z,76.07
2018-02-11T14:55:46.865Z,76.25
2018-02-11T14:58:14.959Z,75.48
2018-02-11T15:00:43.058Z,75.68
2018-02-11T15:03:11.191Z,76.58
2018-02-11T15:05:39.281Z,76.35
2018-02-11T15:08:07.391Z,76.36
2018-02-11T15:10:35.510Z,77.48
2018-02-11T15:13:03.590Z,76.04
2018-02-11T15:15:31.833Z,76.78
2018-02-11T15:17:59.929Z,77.55
2018-02-11T15:20:28.059Z,77.28
2018-02-11T15:22:56.178Z,78.16
2018-02-11T15:25:24.284Z,77.86
2018-02-11T15:27:52.382Z,78.86
2018-02-11T15:30:20.477Z,77.32
2018-02-11T15:32:48.617Z,76.88
2018-02-11T15:35:16.744Z,78.15
2018-02-11T15:37:44.823Z,78.54
2018-02-11T15:40:12.954Z,78.51
2018-02-11T15:42:41.138Z,78.97
2018-02-11T15:45:09.243Z,78.94
2018-02-11T15:47:37.353Z,78.75
2018-02-11T15:50:05.453Z,79.05
2018-02-11T15:52:33.561Z,79.90
2018-02-11T15:55:01.647Z,80.55
2018-02-11T15:57:29.765Z,81.01
2018-02-11T15:59:57.858Z,80.94
2018-02-11T16:02:26.011Z,80.29
2018-02-11T16:04:54.126Z,78.62
2018-02-11T16:07:22.244Z,78.84
2018-02-11T16:09:50.334Z,77.84
2018-02-11T16:12:18.446Z,77.88
2018-02-11T16:14:46.539Z,77.71
2018-02-11T16:17:14.658Z,77.37
2018-02-11T16:19:42.793Z,77.66
2018-02-11T16:22:10.898Z,78.10
2018-02-11T16:24:39.808Z,79.01
2018-02-11T16:27:07.932Z,78.80
2018-02-11T16:29:36.042Z,78.77
2018-02-11T16:32:04.148Z,79.45
2018-02-11T16:34:32.249Z,78.50
2018-02-11T16:37:00.363Z,79.00
2018-02-11T16:39:28.461Z,78.36
2018-02-11T16:41:56.567Z,79.54
2018-02-11T16:44:24.673Z,77.86
2018-02-11T16:46:52.797Z,79.63
2018-02-11T16:49:20.890Z,79.29
2018-02-11T16:51:49.018Z,77.30
2018-02-11T16:54:17.146Z,76.57
2018-02-11T16:56:45.242Z,76.61
2018-02-11T16:59:16.447Z,76.10
2018-02-11T17:01:44.565Z,76.01
2018-02-11T17:04:12.672Z,76.34
2018-02-11T17:06:40.819Z,75.96
2018-02-11T17:09:08.928Z,77.23
2018-02-11T17:11:37.091Z,76.59
2018-02-11T17:14:05.181Z,75.83
2018-02-11T17:16:33.287Z,75.18
2018-02-11T17:19:01.398Z,75.77
2018-02-11T17:21:29.506Z,76.72
2018-02-11T17:23:57.610Z,76.09
2018-02-11T17:26:25.722Z,75.92
2018-02-11T17:28:53.832Z,76.08
2018-02-11T17:31:21.944Z,77.07
2018-02-11T17:33:50.050Z,76.78
2018-02-11T17:36:18.173Z,77.83
2018-02-11T17:38:46.289Z,77.17
2018-02-11T17:41:14.392Z,77.03
2018-02-11T17:43:42.501Z,77.97
2018-02-11T17:46:10.595Z,78.32
2018-02-11T17:48:38.686Z,78.49
2018-02-11T17:51:06.796Z,78.87
2018-02-11T17:53:34.890Z,78.78
2018-02-11T17:56:03.020Z,78.38
2018-02-11T17:58:31.103Z,78.43
2018-02-11T18:00:59.229Z,78.48
2018-02-11T18:03:27.360Z,79.32
2018-02-11T18:05:55.449Z,79.48
2018-02-11T18:08:23.587Z,79.46
2018-02-11T18:10:51.689Z,79.28
2018-02-11T18:13:19.807Z,79.46
2018-02-11T18:15:47.913Z,79.23
2018-02-11T18:18:16.034Z,79.83
2018-02-11T18:20:44.173Z,79.59
2018-02-11T18:23:12.281Z,80.20
2018-02-11T18:25:40.383Z,80.15
2018-02-11T18:28:08.477Z,79.48
2018-02-11T18:30:36.588Z,79.79
2018-02-11T18:33:04.709Z,79.55
2018-02-11T18:35:32.823Z,79.14
2018-02-11T18:38:00.954Z,79.60
2018-02-11T18:40:29.250Z,79.38
2018-02-11T18:42:57.351Z,79.42
2018-02-11T18:45:25.473Z,79.86
2018-02-11T18:47:53.571Z,79.51
2018-02-11T18:50:21.671Z,80.38
2018-02-11T18:52:49.813Z,80.41
2018-02-11T18:55:17.909Z,80.82
2018-02-11T18:57:46.033Z,79.89
2018-02-11T19:00:14.142Z,80.56
2018-02-11T19:02:42.253Z,80.69
2018-02-11T19:05:10.377Z,81.25
2018-02-11T19:07:38.475Z,80.12
2018-02-11T19:10:09.854Z,80.94
2018-02-11T19:12:37.952Z,80.65
2018-02-11T19:15:06.082Z,80.94
2018-02-11T19:17:34.206Z,80.70
2018-02-11T19:20:02.334Z,81.01
2018-02-11T19:22:30.441Z,80.93
2018-02-11T19:24:58.544Z,80.44
2018-02-11T19:27:26.672Z,80.98
2018-02-11T19:29:54.775Z,80.33
2018-02-11T19:32:22.876Z,80.52
2018-02-11T19:34:50.993Z,80.38
2018-02-11T19:37:19.105Z,80.00
2018-02-11T19:39:47.225Z,80.15
2018-02-11T19:42:15.315Z,80.21
2018-02-11T19:44:43.467Z,80.50
2018-02-11T19:47:11.569Z,79.75
2018-02-11T19:49:39.662Z,79.97
2018-02-11T19:52:07.789Z,79.55
2018-02-11T19:54:35.905Z,79.09
2018-02-11T19:57:04.011Z,79.60
2018-02-11T19:59:32.142Z,79.59
2018-02-11T20:02:00.275Z,80.44
2018-02-11T20:04:28.369Z,81.03
2018-02-11T20:06:56.473Z,80.67
2018-02-11T20:09:24.700Z,80.21
2018-02-11T20:11:52.935Z,81.15
2018-02-11T20:14:21.113Z,81.33
2018-02-11T20:16:49.229Z,81.20
2018-02-11T20:19:17.341Z,81.38
2018-02-11T20:21:45.441Z,80.15
2018-02-11T20:24:13.552Z,80.29
2018-02-11T20:26:41.665Z,80.87
2018-02-11T20:29:09.807Z,80.78
2018-02-11T20:31:38.031Z,80.00
2018-02-11T20:34:06.142Z,79.89
2018-02-11T20:36:34.256Z,80.67
2018-02-11T20:39:02.356Z,83.17
2018-02-11T20:41:30.466Z,85.87
2018-02-11T20:43:58.569Z,87.11
2018-02-11T20:46:26.667Z,87.17
2018-02-11T20:48:54.788Z,87.26
2018-02-11T20:51:22.910Z,88.87
2018-02-11T20:53:51.055Z,89.19
2018-02-11T20:56:19.242Z,89.24
2018-02-11T20:58:47.363Z,88.74
2018-02-11T21:01:15.473Z,89.36
2018-02-11T21:03:43.589Z,89.45
2018-02-11T21:06:11.745Z,89.40
2018-02-11T21:08:39.801Z,89.49
2018-02-11T21:11:07.901Z,89.42
2018-02-11T21:13:37.902Z,89.83
2018-02-11T21:16:06.815Z,89.62
2018-02-11T21:18:34.903Z,89.75
2018-02-11T21:21:03.096Z,89.75
2018-02-11T21:23:31.162Z,90.25
2018-02-11T21:25:59.271Z,90.17
2018-02-11T21:28:27.392Z,90.34
2018-02-11T21:30:55.514Z,90.20
2018-02-11T21:33:23.641Z,90.18
2018-02-11T21:35:51.756Z,89.74
2018-02-11T21:38:19.871Z,88.83
2018-02-11T21:40:47.983Z,87.72
2018-02-11T21:43:16.113Z,88.16
2018-02-11T21:45:44.215Z,87.06
2018-02-11T21:48:12.322Z,86.48
2018-02-11T21:50:40.450Z,86.86
2018-02-11T21:53:08.555Z,86.98
2018-02-11T21:55:36.687Z,87.55
2018-02-11T21:58:05.022Z,86.76
2018-02-11T22:00:33.384Z,86.83
2018-02-11T22:03:01.503Z,87.01
2018-02-11T22:05:29.636Z,86.88
2018-02-11T22:07:57.734Z,86.70
2018-02-11T22:10:25.858Z,86.66
2018-02-11T22:12:53.960Z,86.78
2018-02-11T22:15:22.091Z,87.17
2018-02-11T22:17:50.209Z,87.01
2018-02-11T22:20:18.331Z,87.60
2018-02-11T22:22:46.428Z,87.58
2018-02-11T22:25:14.544Z,87.52
2018-02-11T22:27:42.651Z,87.53
2018-02-11T22:30:10.766Z,87.63
2018-02-11T22:32:38.869Z,87.83
2018-02-11T22:35:06.983Z,88.04
2018-02-11T22:37:35.096Z,88.37
2018-02-11T22:40:03.199Z,88.52
2018-02-11T22:42:31.325Z,88.32
2018-02-11T22:44:59.423Z,88.35
2018-02-11T22:47:27.660Z,88.06
2018-02-11T22:49:56.158Z,88.08
2018-02-11T22:52:24.452Z,87.92
2018-02-11T22:54:52.558Z,88.42
2018-02-11T22:57:20.671Z,88.40
2018-02-11T22:59:48.798Z,87.91
2018-02-11T23:02:16.911Z,88.15
2018-02-11T23:04:45.103Z,87.90
2018-02-11T23:07:13.206Z,88.38
2018-02-11T23:09:41.359Z,88.54
2018-02-11T23:12:09.474Z,88.75
2018-02-11T23:14:37.626Z,88.80
2018-02-11T23:17:05.790Z,88.92
2018-02-11T23:19:49.285Z,88.87
2018-02-11T23:22:17.385Z,88.43
2018-02-11T23:24:45.493Z,88.28
2018-02-11T23:27:13.612Z,88.56
2018-02-11T23:29:41.702Z,88.55
2018-02-11T23:32:09.823Z,88.45
2018-02-11T23:34:37.914Z,89.21
2018-02-11T23:37:06.040Z,89.01
2018-02-11T23:39:34.146Z,89.29
2018-02-11T23:42:02.245Z,88.37
2018-02-11T23:44:30.357Z,88.68
2018-02-11T23:46:58.462Z,88.85
2018-02-11T23:49:26.616Z,88.99
2018-02-11T23:51:54.712Z,88.95
2018-02-11T23:54:22.837Z,88.79
2018-02-11T23:56:51.874Z,89.15
2018-02-11T23:59:20.058Z,89.71
